Time;durP1;ratioP1;P1;durP2;ratioP2;P2;SDS_P1;SDS_P2;PMS_P1;PMS_P2;Temp;Humidity;BMP_temperature;BMP_pressure;BME280_temperature;BME280_humidity;BME280_pressure;Samples;Min_cycle;Max_cycle;Signal;HPM_P1;HPM_P2
2022/07/31 13:04:40;;;;;;;3.30;1.70;;;;;29.32;96884.60;;;;108307;1279;542158;-74
2022/07/31 13:07:08;;;;;;;3.80;1.90;;;;;29.20;96880.60;;;;110278;1260;41178;-78
2022/07/31 13:09:37;;;;;;;4.30;2.00;;;;;29.10;96876.80;;;;109850;1260;41728;-77
2022/07/31 13:12:08;;;;;;;4.50;1.90;;;;;29.00;96880.40;;;;110195;1260;41272;-76
2022/07/31 13:14:37;;;;;;;5.50;1.90;;;;;28.90;96868.60;;;;109916;1262;41150;-76
2022/07/31 13:17:06;;;;;;;2.80;1.70;;;;;28.74;96869.40;;;;109836;1260;378992;-70
2022/07/31 13:19:36;;;;;;;3.10;1.60;;;;;28.60;96864.80;;;;110449;1254;42345;-76
2022/07/31 13:22:05;;;;;;;3.70;1.80;;;;;28.50;96861.20;;;;110634;1253;41143;-77
2022/07/31 13:24:34;;;;;;;4.90;2.10;;;;;28.50;96861.80;;;;110690;1254;41720;-76
2022/07/31 13:27:03;;;;;;;3.20;1.70;;;;;28.50;96861.20;;;;110624;1256;41257;-75
2022/07/31 13:29:32;;;;;;;4.90;2.10;;;;;28.40;96861.40;;;;110543;1255;41309;-76
2022/07/31 13:32:01;;;;;;;3.50;1.70;;;;;28.40;96862.20;;;;110628;1253;41150;-77
2022/07/31 13:34:29;;;;;;;4.50;1.80;;;;;28.20;96859.80;;;;110559;1254;41276;-76
2022/07/31 13:36:58;;;;;;;3.30;1.80;;;;;28.10;96864.20;;;;110885;1251;42246;-79
2022/07/31 13:39:27;;;;;;;3.80;1.80;;;;;28.08;96866.80;;;;110780;1251;41265;-77
2022/07/31 13:41:56;;;;;;;4.30;1.70;;;;;28.10;96864.80;;;;111455;1249;41748;-75
2022/07/31 13:44:25;;;;;;;3.60;1.80;;;;;28.18;96862.80;;;;111058;1249;40786;-76
2022/07/31 13:46:54;;;;;;;4.70;1.70;;;;;28.28;96864.40;;;;111067;1250;41676;-77
2022/07/31 13:49:28;;;;;;;3.30;1.60;;;;;28.30;96862.40;;;;111032;1251;41990;-76
2022/07/31 13:52:00;;;;;;;3.10;1.70;;;;;28.40;96861.00;;;;111057;1250;41156;-76
2022/07/31 13:54:29;;;;;;;3.50;1.70;;;;;28.46;96862.20;;;;110767;1250;41968;-75
2022/07/31 13:56:58;;;;;;;4.60;1.80;;;;;28.50;96863.40;;;;110875;1250;41514;-77
2022/07/31 13:59:28;;;;;;;3.90;1.90;;;;;28.50;96858.20;;;;110930;1249;42324;-76
2022/07/31 14:01:57;;;;;;;4.10;2.00;;;;;28.50;96857.40;;;;110855;1250;41432;-76
2022/07/31 14:04:32;;;;;;;3.80;1.80;;;;;28.50;96856.20;;;;110838;1250;41388;-74
2022/07/31 14:07:06;;;;;;;3.70;1.70;;;;;28.46;96859.20;;;;110927;1250;41725;-76
2022/07/31 14:09:36;;;;;;;3.20;1.70;;;;;28.44;96856.20;;;;110707;1250;41146;-77
2022/07/31 14:12:05;;;;;;;3.10;1.70;;;;;28.50;96856.00;;;;110904;1248;42344;-74
2022/07/31 14:14:35;;;;;;;3.20;1.60;;;;;28.60;96859.40;;;;111245;1250;42482;-75
2022/07/31 14:17:04;;;;;;;2.90;1.60;;;;;28.66;96858.20;;;;110890;1250;41919;-76
2022/07/31 14:19:32;;;;;;;3.60;1.70;;;;;28.70;96866.00;;;;110954;1250;41492;-76
2022/07/31 14:22:08;;;;;;;3.50;1.70;;;;;28.80;96862.00;;;;110913;1250;41150;-76
2022/07/31 14:24:39;;;;;;;5.50;2.20;;;;;28.80;96856.20;;;;110786;1250;41373;-77
2022/07/31 14:27:15;;;;;;;3.60;1.70;;;;;27.98;96857.80;;;;110906;1250;41154;-78
2022/07/31 14:29:48;;;;;;;3.30;1.70;;;;;28.00;96856.20;;;;110704;1250;41154;-76
2022/07/31 14:32:18;;;;;;;3.40;1.80;;;;;27.90;96858.00;;;;111019;1250;41136;-77
2022/07/31 14:34:48;;;;;;;3.30;1.60;;;;;27.90;96856.20;;;;110644;1253;41268;-76
2022/07/31 14:37:17;;;;;;;3.90;1.80;;;;;27.90;96855.40;;;;110971;1250;42074;-76
2022/07/31 14:39:45;;;;;;;3.00;1.80;;;;;27.74;96852.60;;;;110959;1251;41384;-76
2022/07/31 14:42:14;;;;;;;4.20;1.80;;;;;27.56;96854.60;;;;110701;1253;41264;-78
2022/07/31 14:44:43;;;;;;;2.80;1.60;;;;;27.26;96856.60;;;;110793;1250;42370;-76
2022/07/31 14:47:12;;;;;;;3.70;1.90;;;;;27.14;96846.60;;;;110607;1252;41159;-77
2022/07/31 14:49:41;;;;;;;5.10;2.30;;;;;27.10;96845.60;;;;110595;1250;41270;-77
2022/07/31 14:52:31;;;;;;;3.60;1.70;;;;;26.50;96846.60;;;;110658;1252;41642;-77
2022/07/31 14:55:00;;;;;;;3.70;1.90;;;;;26.60;96849.80;;;;110796;1251;41192;-77
2022/07/31 14:57:30;;;;;;;4.00;1.80;;;;;26.66;96850.40;;;;110716;1253;41258;-76
2022/07/31 14:59:58;;;;;;;4.00;1.70;;;;;26.70;96851.60;;;;110577;1251;41258;-77
2022/07/31 15:02:27;;;;;;;5.20;1.70;;;;;26.56;96849.40;;;;110660;1251;42372;-77
2022/07/31 15:04:56;;;;;;;2.60;1.60;;;;;26.48;96848.40;;;;110762;1250;41134;-77
2022/07/31 15:07:25;;;;;;;3.20;1.70;;;;;26.60;96845.20;;;;110699;1251;42223;-78
2022/07/31 15:10:04;;;;;;;6.10;2.00;;;;;26.70;96844.40;;;;110805;1250;41219;-77
2022/07/31 15:12:33;;;;;;;3.30;1.60;;;;;26.70;96847.20;;;;110670;1250;41126;-77
2022/07/31 15:15:02;;;;;;;3.50;2.00;;;;;26.86;96842.00;;;;110736;1250;41141;-76
2022/07/31 15:17:31;;;;;;;3.30;1.80;;;;;26.74;96850.60;;;;110702;1250;42638;-76
2022/07/31 15:20:00;;;;;;;3.30;1.60;;;;;26.62;96848.20;;;;110690;1250;42161;-76
2022/07/31 15:22:29;;;;;;;3.40;1.60;;;;;26.70;96846.40;;;;111248;1247;41239;-76
2022/07/31 15:24:57;;;;;;;2.50;1.40;;;;;26.80;96846.60;;;;111060;1248;41192;-76
2022/07/31 15:27:26;;;;;;;2.60;1.60;;;;;26.90;96847.00;;;;111106;1247;41204;-77
2022/07/31 15:29:55;;;;;;;4.20;1.90;;;;;27.00;96856.00;;;;111048;1247;41263;-75
2022/07/31 15:32:28;;;;;;;4.30;2.00;;;;;26.92;96874.00;;;;111083;1247;41145;-78
2022/07/31 15:34:56;;;;;;;5.60;1.90;;;;;26.48;96878.80;;;;111125;1247;41120;-76
2022/07/31 15:37:25;;;;;;;5.50;2.40;;;;;26.12;96881.80;;;;111237;1247;41153;-76
2022/07/31 15:39:54;;;;;;;5.60;2.00;;;;;25.68;96895.80;;;;111073;1247;41143;-76
2022/07/31 15:42:32;;;;;;;5.50;2.10;;;;;25.30;96894.20;;;;111020;1247;41662;-78
2022/07/31 15:45:00;;;;;;;6.20;2.10;;;;;25.00;96893.00;;;;111103;1246;41931;-79
2022/07/31 15:47:29;;;;;;;7.40;2.20;;;;;24.68;96904.20;;;;111152;1247;41144;-77
2022/07/31 15:49:58;;;;;;;6.20;2.30;;;;;24.30;96902.00;;;;111336;1246;42429;-80
2022/07/31 15:52:27;;;;;;;6.70;2.00;;;;;23.20;96892.20;;;;110830;1247;41730;-67
2022/07/31 15:54:55;;;;;;;7.00;2.10;;;;;22.32;96894.80;;;;111079;1247;41591;-67
2022/07/31 15:57:24;;;;;;;4.60;2.20;;;;;22.00;96908.80;;;;111224;1248;41253;-67
2022/07/31 15:59:54;;;;;;;6.30;2.20;;;;;21.64;96915.20;;;;111102;1247;41146;-68
2022/07/31 16:02:23;;;;;;;4.90;2.10;;;;;21.40;96930.00;;;;111089;1246;41152;-67
2022/07/31 16:04:53;;;;;;;5.30;2.30;;;;;21.40;96942.20;;;;111082;1246;41150;-68
2022/07/31 16:07:31;;;;;;;6.90;2.30;;;;;21.40;96946.60;;;;111256;1247;41767;-68
2022/07/31 16:10:26;;;;;;;5.10;2.20;;;;;21.40;96957.00;;;;111133;1248;41395;-67
2022/07/31 16:13:00;;;;;;;6.20;2.50;;;;;21.40;96958.80;;;;111140;1247;41220;-67
2022/07/31 16:15:29;;;;;;;5.20;2.20;;;;;21.50;96957.80;;;;111002;1248;41581;-68
2022/07/31 16:17:59;;;;;;;6.20;2.30;;;;;21.30;96962.20;;;;111247;1247;41133;-70
2022/07/31 16:20:28;;;;;;;7.70;2.20;;;;;21.20;96962.60;;;;111404;1246;41138;-69
2022/07/31 16:23:00;;;;;;;7.10;2.70;;;;;21.12;96962.20;;;;110929;1248;41625;-69
2022/07/31 16:25:30;;;;;;;8.90;2.60;;;;;21.10;96965.40;;;;110950;1247;41671;-68
2022/07/31 16:28:03;;;;;;;7.50;2.40;;;;;21.00;96958.60;;;;111228;1247;41571;-69
2022/07/31 16:30:32;;;;;;;7.20;2.80;;;;;21.00;96959.00;;;;111137;1247;41440;-69
2022/07/31 16:33:02;;;;;;;6.00;2.30;;;;;20.90;96961.60;;;;111239;1247;41133;-69
2022/07/31 16:35:31;;;;;;;4.70;2.20;;;;;20.80;96958.00;;;;111177;1247;41240;-68
2022/07/31 16:38:00;;;;;;;5.50;2.50;;;;;20.70;96965.80;;;;111184;1247;41630;-69
2022/07/31 16:40:32;;;;;;;6.60;2.40;;;;;20.70;96971.20;;;;111179;1247;41147;-68
2022/07/31 16:43:03;;;;;;;5.30;2.40;;;;;20.60;96973.80;;;;111293;1247;41629;-69
2022/07/31 16:45:52;;;;;;;;;;;;;20.60;96982.20;;;;111181;1248;41243;-69
2022/07/31 16:48:21;;;;;;;4.90;2.10;;;;;20.60;96987.60;;;;111340;1247;41176;-69
2022/07/31 16:50:50;;;;;;;6.50;2.40;;;;;20.64;96980.40;;;;111335;1247;41253;-69
2022/07/31 16:53:25;;;;;;;4.40;2.10;;;;;20.70;96983.80;;;;111178;1248;41152;-70
2022/07/31 16:56:15;;;;;;;5.80;2.30;;;;;20.74;96990.20;;;;111214;1247;41505;-69
2022/07/31 16:58:44;;;;;;;8.40;2.40;;;;;20.80;96986.00;;;;111432;1247;41851;-70
2022/07/31 17:01:13;;;;;;;4.70;2.20;;;;;20.86;96983.20;;;;111283;1247;41147;-71
2022/07/31 17:04:03;;;;;;;4.00;2.00;;;;;20.90;96983.60;;;;111298;1247;41616;-69
2022/07/31 17:06:35;;;;;;;5.40;2.30;;;;;21.00;96979.80;;;;111190;1248;42148;-68
2022/07/31 17:09:07;;;;;;;5.10;2.30;;;;;21.10;96981.40;;;;111133;1247;41141;-69
2022/07/31 17:11:47;;;;;;;6.10;2.10;;;;;21.20;96977.80;;;;111052;1250;41991;-68
2022/07/31 17:14:18;;;;;;;6.40;2.30;;;;;21.20;96979.20;;;;111126;1247;42030;-69
2022/07/31 17:16:48;;;;;;;6.00;2.40;;;;;21.20;96983.20;;;;111277;1247;41297;-69
2022/07/31 17:19:19;;;;;;;5.10;2.20;;;;;21.20;96982.60;;;;111076;1247;43020;-69
2022/07/31 17:22:09;;;;;;;5.50;2.40;;;;;21.20;96983.80;;;;111243;1246;41124;-68
2022/07/31 17:24:39;;;;;;;5.20;2.20;;;;;21.10;96983.40;;;;111305;1247;41236;-68
2022/07/31 17:27:08;;;;;;;4.10;1.90;;;;;21.10;96986.80;;;;111179;1247;41250;-69
2022/07/31 17:29:38;;;;;;;5.00;2.20;;;;;21.00;96987.20;;;;111208;1248;41143;-68
2022/07/31 17:32:07;;;;;;;4.80;2.10;;;;;21.00;96991.80;;;;111132;1247;41302;-69
2022/07/31 17:34:39;;;;;;;6.10;1.90;;;;;20.90;97003.40;;;;111147;1247;41248;-69
2022/07/31 17:37:08;;;;;;;4.10;1.90;;;;;20.90;97013.00;;;;111092;1249;41436;-69
2022/07/31 17:39:37;;;;;;;3.80;1.80;;;;;20.80;97017.80;;;;111084;1247;41529;-69
2022/07/31 17:42:06;;;;;;;6.50;2.10;;;;;20.70;97019.40;;;;111155;1249;41817;-69
2022/07/31 17:44:37;;;;;;;4.60;2.10;;;;;20.60;97024.60;;;;111124;1247;41134;-68
2022/07/31 17:47:07;;;;;;;3.00;1.70;;;;;20.60;97030.40;;;;111058;1248;41142;-70
2022/07/31 17:49:37;;;;;;;3.20;1.70;;;;;20.50;97029.80;;;;111132;1247;42012;-69
2022/07/31 17:52:06;;;;;;;4.90;1.90;;;;;20.46;97033.00;;;;111133;1247;41945;-70
2022/07/31 17:54:36;;;;;;;11.10;2.10;;;;;20.40;97031.80;;;;111019;1248;41143;-67
2022/07/31 17:57:05;;;;;;;4.80;2.10;;;;;20.30;97031.40;;;;111084;1247;41571;-70
2022/07/31 17:59:34;;;;;;;5.80;2.40;;;;;20.24;97031.80;;;;111234;1247;41181;-70
2022/07/31 18:02:03;;;;;;;7.70;2.80;;;;;20.20;97035.60;;;;111121;1248;41139;-69
2022/07/31 18:04:34;;;;;;;5.70;2.20;;;;;20.02;97038.80;;;;110709;1250;41184;-69
2022/07/31 18:07:03;;;;;;;;;;;;;19.98;97041.60;;;;110898;1248;41618;-68
2022/07/31 18:09:32;;;;;;;4.00;1.90;;;;;19.88;97037.60;;;;111101;1246;41175;-69
2022/07/31 18:12:01;;;;;;;4.00;1.90;;;;;19.80;97038.60;;;;111122;1247;41130;-69
2022/07/31 18:14:31;;;;;;;3.70;1.80;;;;;19.80;97037.00;;;;111121;1247;41412;-68
2022/07/31 18:17:00;;;;;;;5.60;1.90;;;;;19.70;97037.40;;;;111089;1247;42116;-69
2022/07/31 18:19:30;;;;;;;4.70;2.20;;;;;19.70;97040.20;;;;111109;1248;41146;-69
2022/07/31 18:21:59;;;;;;;5.20;2.10;;;;;19.66;97043.60;;;;111058;1247;41593;-68
2022/07/31 18:24:28;;;;;;;4.10;1.90;;;;;19.60;97048.80;;;;110653;1250;41565;-68
2022/07/31 18:26:56;;;;;;;4.60;2.10;;;;;19.60;97044.60;;;;111110;1247;41149;-68
2022/07/31 18:29:25;;;;;;;9.00;2.40;;;;;19.50;97047.60;;;;111065;1249;42271;-70
2022/07/31 18:31:54;;;;;;;5.40;2.40;;;;;19.50;97044.80;;;;111102;1247;41197;-68
2022/07/31 18:34:23;;;;;;;7.30;2.90;;;;;19.40;97046.80;;;;110683;1251;41606;-69
2022/07/31 18:36:52;;;;;;;5.50;2.50;;;;;19.30;97048.80;;;;111096;1248;41152;-68
2022/07/31 18:39:23;;;;;;;5.00;2.30;;;;;19.30;97048.40;;;;111287;1247;41388;-69
2022/07/31 18:41:52;;;;;;;5.50;2.40;;;;;19.20;97050.20;;;;111062;1249;41903;-69
2022/07/31 18:44:21;;;;;;;4.40;2.00;;;;;19.20;97050.80;;;;111164;1247;41247;-69
2022/07/31 18:46:51;;;;;;;3.70;2.00;;;;;19.20;97058.00;;;;111103;1247;42117;-70
2022/07/31 18:49:23;;;;;;;4.30;2.00;;;;;19.20;97058.20;;;;111127;1247;41323;-69
2022/07/31 18:52:11;;;;;;;3.80;2.00;;;;;19.20;97061.00;;;;111090;1247;41602;-69
2022/07/31 18:54:40;;;;;;;4.90;2.00;;;;;19.20;97063.80;;;;111055;1247;42057;-69
2022/07/31 18:57:09;;;;;;;5.60;2.20;;;;;19.10;97061.20;;;;111101;1248;41154;-69
2022/07/31 18:59:38;;;;;;;3.20;1.80;;;;;19.10;97060.80;;;;111102;1247;41622;-69
2022/07/31 19:02:09;;;;;;;4.90;2.00;;;;;19.10;97064.40;;;;111027;1248;41132;-69
2022/07/31 19:04:37;;;;;;;;;;;;;19.10;97057.40;;;;111257;1247;42235;-70
2022/07/31 19:07:07;;;;;;;4.70;2.20;;;;;19.00;97062.40;;;;111061;1249;41153;-68
2022/07/31 19:09:36;;;;;;;6.20;2.30;;;;;19.00;97071.60;;;;111084;1247;41432;-72
2022/07/31 19:12:06;;;;;;;3.60;1.90;;;;;19.00;97072.80;;;;111077;1248;41208;-70
2022/07/31 19:14:36;;;;;;;4.80;2.00;;;;;19.00;97070.00;;;;111127;1247;41645;-69
2022/07/31 19:17:05;;;;;;;5.30;2.30;;;;;19.10;97077.60;;;;111082;1247;41143;-70
2022/07/31 19:19:35;;;;;;;8.50;3.10;;;;;19.10;97077.00;;;;111064;1248;41136;-71
2022/07/31 19:22:20;;;;;;;7.40;3.40;;;;;19.10;97081.80;;;;111156;1248;41610;-72
2022/07/31 19:24:50;;;;;;;6.10;2.80;;;;;19.10;97088.20;;;;111308;1248;41880;-70
2022/07/31 19:27:19;;;;;;;5.50;2.50;;;;;19.00;97086.80;;;;111135;1248;41141;-69
2022/07/31 19:29:48;;;;;;;5.20;2.10;;;;;19.00;97090.20;;;;111153;1248;41159;-70
2022/07/31 19:32:17;;;;;;;6.00;2.60;;;;;19.00;97086.40;;;;111026;1249;41250;-70
2022/07/31 19:34:46;;;;;;;7.70;2.50;;;;;19.04;97095.40;;;;111120;1248;41152;-69
2022/07/31 19:37:17;;;;;;;6.40;2.80;;;;;19.04;97098.20;;;;111188;1247;41808;-69
2022/07/31 19:39:46;;;;;;;6.90;3.20;;;;;19.00;97094.80;;;;111229;1247;41154;-70
2022/07/31 19:42:15;;;;;;;7.60;3.30;;;;;19.00;97100.40;;;;111037;1247;41254;-69
2022/07/31 19:44:44;;;;;;;7.30;3.40;;;;;18.96;97100.80;;;;111077;1248;41156;-69
2022/07/31 19:47:13;;;;;;;6.40;2.90;;;;;18.90;97100.60;;;;110869;1250;43209;-71
2022/07/31 19:49:43;;;;;;;6.40;2.60;;;;;18.80;97101.80;;;;111174;1247;41870;-69
2022/07/31 19:52:12;;;;;;;9.20;2.20;;;;;18.90;97099.60;;;;111295;1248;41479;-70
2022/07/31 19:54:41;;;;;;;6.20;2.80;;;;;18.90;97095.80;;;;111132;1248;42978;-73
2022/07/31 19:57:09;;;;;;;6.60;2.90;;;;;19.00;97097.60;;;;111081;1247;41175;-69
2022/07/31 19:59:38;;;;;;;5.40;2.50;;;;;19.00;97093.60;;;;111124;1248;41192;-70
2022/07/31 20:02:07;;;;;;;5.00;2.40;;;;;19.00;97097.00;;;;111121;1247;41241;-69
2022/07/31 20:04:38;;;;;;;4.80;2.20;;;;;19.10;97097.60;;;;111128;1247;41592;-69
2022/07/31 20:07:06;;;;;;;3.80;2.00;;;;;19.10;97094.60;;;;111188;1247;41136;-70
2022/07/31 20:09:35;;;;;;;4.70;2.20;;;;;19.12;97096.00;;;;111122;1247;41709;-69
2022/07/31 20:12:05;;;;;;;8.00;3.10;;;;;19.20;97093.60;;;;111201;1247;41616;-69
2022/07/31 20:14:34;;;;;;;8.00;3.60;;;;;19.20;97090.20;;;;111002;1250;41447;-70
2022/07/31 20:17:03;;;;;;;7.60;2.90;;;;;19.20;97092.40;;;;110866;1249;41725;-69
2022/07/31 20:19:32;;;;;;;5.50;2.30;;;;;19.20;97084.80;;;;111079;1247;41147;-69
2022/07/31 20:22:01;;;;;;;6.20;2.60;;;;;19.20;97087.40;;;;111126;1248;41148;-69
2022/07/31 20:24:30;;;;;;;5.90;2.30;;;;;19.20;97084.80;;;;111052;1248;41144;-69
2022/07/31 20:26:59;;;;;;;5.40;2.40;;;;;19.20;97082.40;;;;111058;1248;41151;-70
2022/07/31 20:29:28;;;;;;;4.80;2.20;;;;;19.28;97086.80;;;;111075;1248;41451;-70
2022/07/31 20:31:57;;;;;;;4.90;2.20;;;;;19.30;97086.40;;;;110807;1250;41735;-69
2022/07/31 20:34:26;;;;;;;7.60;2.40;;;;;19.30;97087.00;;;;111128;1247;41133;-69
2022/07/31 20:36:57;;;;;;;5.90;2.40;;;;;19.30;97087.80;;;;111105;1248;41714;-69
2022/07/31 20:39:26;;;;;;;5.50;2.40;;;;;19.30;97089.20;;;;111109;1247;41273;-70
2022/07/31 20:42:01;;;;;;;7.60;3.20;;;;;19.22;97093.40;;;;110954;1247;41489;-70
2022/07/31 20:44:31;;;;;;;7.00;2.90;;;;;19.20;97089.00;;;;111075;1247;41720;-69
2022/07/31 20:47:00;;;;;;;9.40;3.20;;;;;19.20;97087.80;;;;111068;1248;41142;-70
2022/07/31 20:49:29;;;;;;;8.40;3.90;;;;;19.20;97086.80;;;;111046;1247;42889;-70
2022/07/31 20:52:03;;;;;;;10.20;3.80;;;;;19.20;97085.60;;;;111142;1247;42053;-71
2022/07/31 20:54:32;;;;;;;9.10;3.10;;;;;19.10;97084.60;;;;111082;1249;42370;-69
2022/07/31 20:57:02;;;;;;;7.00;3.00;;;;;19.10;97086.60;;;;111039;1248;41246;-69
2022/07/31 20:59:31;;;;;;;5.00;2.50;;;;;19.10;97082.00;;;;111072;1249;41263;-69
2022/07/31 21:02:00;;;;;;;9.90;3.60;;;;;19.10;97079.60;;;;111151;1249;41146;-68
2022/07/31 21:04:29;;;;;;;8.40;3.40;;;;;19.10;97078.60;;;;110805;1250;41721;-69
2022/07/31 21:06:58;;;;;;;8.50;3.90;;;;;19.10;97079.60;;;;111111;1248;42578;-69
2022/07/31 21:09:30;;;;;;;7.60;3.10;;;;;19.08;97079.20;;;;111029;1248;41161;-70
2022/07/31 21:12:01;;;;;;;6.90;2.90;;;;;19.00;97077.40;;;;111015;1249;41771;-69
2022/07/31 21:14:30;;;;;;;6.60;3.00;;;;;19.00;97083.20;;;;111027;1248;41144;-69
2022/07/31 21:16:59;;;;;;;7.10;3.10;;;;;19.02;97082.40;;;;111134;1247;40818;-69
2022/07/31 21:19:28;;;;;;;6.70;3.10;;;;;19.04;97087.00;;;;111085;1249;41123;-71
2022/07/31 21:21:57;;;;;;;10.60;3.20;;;;;19.04;97087.40;;;;111084;1247;41146;-70
2022/07/31 21:24:26;;;;;;;5.20;2.40;;;;;19.08;97085.80;;;;111084;1247;41416;-69
2022/07/31 21:26:58;;;;;;;5.20;2.40;;;;;19.10;97088.20;;;;111047;1248;41643;-69
2022/07/31 21:29:27;;;;;;;6.50;2.30;;;;;19.10;97086.20;;;;111155;1247;41612;-69
2022/07/31 21:31:56;;;;;;;7.00;2.30;;;;;19.10;97085.20;;;;111155;1247;41169;-69
2022/07/31 21:34:26;;;;;;;6.70;2.40;;;;;19.10;97086.40;;;;111152;1247;41252;-69
2022/07/31 21:36:55;;;;;;;6.00;2.20;;;;;19.10;97086.60;;;;111128;1247;42132;-69
2022/07/31 21:39:24;;;;;;;6.60;2.70;;;;;19.10;97084.80;;;;111156;1247;41177;-69
2022/07/31 21:41:54;;;;;;;6.20;2.60;;;;;19.10;97081.60;;;;111168;1247;41476;-69
2022/07/31 21:44:23;;;;;;;5.90;2.60;;;;;19.10;97077.80;;;;111018;1248;41146;-68
2022/07/31 21:46:53;;;;;;;5.90;2.40;;;;;19.10;97084.80;;;;111147;1247;42403;-68
2022/07/31 21:49:22;;;;;;;4.70;2.10;;;;;19.10;97079.80;;;;111162;1247;41604;-69
2022/07/31 21:51:51;;;;;;;4.70;2.40;;;;;19.10;97081.60;;;;110989;1248;41945;-68
2022/07/31 21:54:20;;;;;;;7.20;2.90;;;;;19.10;97080.80;;;;111077;1248;41147;-68
2022/07/31 21:56:49;;;;;;;7.10;2.60;;;;;19.00;97083.40;;;;111080;1247;41423;-69
2022/07/31 21:59:18;;;;;;;5.60;2.20;;;;;19.00;97084.00;;;;111124;1248;41137;-69
2022/07/31 22:01:47;;;;;;;5.50;2.40;;;;;19.00;97082.80;;;;111109;1247;43100;-68
2022/07/31 22:04:25;;;;;;;5.90;2.40;;;;;19.00;97077.40;;;;111026;1248;41520;-68
2022/07/31 22:09:45;;;;;;;5.40;2.60;;;;;19.00;97076.20;;;;111167;1247;41881;-69
2022/07/31 22:12:14;;;;;;;6.20;2.70;;;;;19.00;97074.40;;;;111136;1247;41274;-68
2022/07/31 22:14:43;;;;;;;6.10;2.50;;;;;19.00;97074.60;;;;111153;1247;41627;-68
2022/07/31 22:17:12;;;;;;;5.70;2.50;;;;;19.00;97074.20;;;;111084;1247;41145;-66
2022/07/31 22:19:42;;;;;;;8.60;2.60;;;;;19.00;97075.60;;;;111040;1246;41181;-68
2022/07/31 22:22:15;;;;;;;5.80;2.40;;;;;19.00;97074.40;;;;111060;1247;41564;-68
2022/07/31 22:24:45;;;;;;;8.60;4.10;;;;;19.00;97073.80;;;;111047;1248;41137;-70
2022/07/31 22:30:05;;;;;;;8.70;3.90;;;;;18.90;97070.80;;;;111154;1248;41589;-67
2022/07/31 22:32:35;;;;;;;6.70;2.90;;;;;18.90;97074.00;;;;111207;1247;41143;-69
2022/07/31 22:35:05;;;;;;;7.80;3.20;;;;;18.90;97071.00;;;;111127;1248;41760;-69
2022/07/31 22:37:34;;;;;;;10.10;3.60;;;;;18.88;97075.60;;;;111230;1247;41146;-69
2022/07/31 22:40:04;;;;;;;8.00;3.40;;;;;18.80;97074.00;;;;111009;1247;42207;-68
2022/07/31 22:42:34;;;;;;;9.20;3.40;;;;;18.80;97074.60;;;;111104;1248;41149;-67
2022/07/31 22:45:03;;;;;;;6.40;2.60;;;;;18.80;97074.60;;;;111051;1249;42094;-68
2022/07/31 22:47:33;;;;;;;6.70;2.40;;;;;18.80;97071.60;;;;111033;1250;41174;-68
2022/07/31 22:50:03;;;;;;;6.80;2.80;;;;;18.80;97071.40;;;;111069;1247;41173;-68
2022/07/31 22:52:32;;;;;;;8.80;3.80;;;;;18.80;97072.80;;;;111051;1248;41253;-68
2022/07/31 22:55:05;;;;;;;7.50;3.40;;;;;18.80;97067.80;;;;111053;1248;42539;-68
2022/07/31 22:57:34;;;;;;;7.60;3.90;;;;;18.80;97075.20;;;;111106;1248;41247;-68
2022/07/31 23:00:06;;;;;;;7.20;3.10;;;;;18.80;97071.00;;;;111101;1247;41780;-68
2022/07/31 23:02:38;;;;;;;6.10;2.80;;;;;18.70;97073.00;;;;111123;1248;41251;-68
2022/07/31 23:05:07;;;;;;;4.90;2.50;;;;;18.70;97071.00;;;;111160;1247;41746;-70
2022/07/31 23:07:36;;;;;;;7.50;2.50;;;;;18.72;97070.40;;;;111090;1247;41849;-69
2022/07/31 23:10:07;;;;;;;6.20;2.80;;;;;18.80;97068.40;;;;111126;1248;41708;-68
2022/07/31 23:12:37;;;;;;;6.70;2.90;;;;;18.80;97070.80;;;;111157;1247;43008;-69
2022/07/31 23:15:07;;;;;;;7.60;3.20;;;;;18.80;97065.60;;;;111104;1248;41146;-69
2022/07/31 23:17:36;;;;;;;7.90;3.20;;;;;18.84;97065.20;;;;111104;1247;41477;-69
2022/07/31 23:20:05;;;;;;;8.30;3.10;;;;;18.82;97065.00;;;;111134;1248;41131;-69
2022/07/31 23:22:35;;;;;;;8.30;3.50;;;;;18.90;97065.20;;;;111123;1247;41245;-69
2022/07/31 23:25:04;;;;;;;7.50;3.10;;;;;18.80;97070.00;;;;111117;1247;41172;-67
2022/07/31 23:27:34;;;;;;;6.90;3.10;;;;;18.80;97068.20;;;;111113;1247;42469;-67
2022/07/31 23:30:04;;;;;;;7.00;2.70;;;;;18.80;97067.60;;;;111122;1247;41168;-67
2022/07/31 23:32:33;;;;;;;6.30;2.60;;;;;18.80;97068.00;;;;111072;1247;41254;-67
2022/07/31 23:35:02;;;;;;;6.00;2.60;;;;;18.80;97065.60;;;;111033;1248;41152;-68
2022/07/31 23:37:32;;;;;;;8.00;3.60;;;;;18.84;97063.80;;;;111077;1247;42998;-68
2022/07/31 23:40:02;;;;;;;8.40;3.70;;;;;18.90;97062.40;;;;111097;1247;41183;-68
2022/07/31 23:42:38;;;;;;;7.50;3.30;;;;;18.72;97068.00;;;;111062;1247;42135;-68
2022/07/31 23:45:11;;;;;;;7.30;3.10;;;;;18.70;97069.00;;;;111177;1248;41151;-68
2022/07/31 23:47:41;;;;;;;7.00;2.40;;;;;18.60;97064.80;;;;111065;1247;41788;-67
2022/07/31 23:50:15;;;;;;;4.60;2.10;;;;;18.56;97065.20;;;;111056;1247;41162;-68
2022/07/31 23:52:44;;;;;;;3.10;1.60;;;;;18.50;97062.40;;;;111108;1247;41500;-68
2022/07/31 23:55:14;;;;;;;3.00;1.70;;;;;18.54;97064.80;;;;111068;1247;41475;-68
2022/07/31 23:57:43;;;;;;;3.80;1.90;;;;;18.60;97057.80;;;;111064;1247;42149;-67
